sensor_id;sensor_type;location;lat;lon;timestamp;P1;durP1;ratioP1;P2;durP2;ratioP2
24557;SDS011;12726;49.148;8.582;2023-06-10T00:02:14;5.50;;;4.75;;
24557;SDS011;12726;49.148;8.582;2023-06-10T00:05:00;5.75;;;4.93;;
24557;SDS011;12726;49.148;8.582;2023-06-10T00:07:46;5.68;;;4.68;;
24557;SDS011;12726;49.148;8.582;2023-06-10T00:10:33;6.45;;;5.35;;
24557;SDS011;12726;49.148;8.582;2023-06-10T00:13:19;6.78;;;5.97;;
24557;SDS011;12726;49.148;8.582;2023-06-10T00:16:06;7.30;;;6.28;;
24557;SDS011;12726;49.148;8.582;2023-06-10T00:18:51;7.53;;;6.13;;
24557;SDS011;12726;49.148;8.582;2023-06-10T00:21:39;6.72;;;5.75;;
24557;SDS011;12726;49.148;8.582;2023-06-10T00:24:25;6.85;;;5.88;;
24557;SDS011;12726;49.148;8.582;2023-06-10T00:27:10;9.38;;;6.90;;
24557;SDS011;12726;49.148;8.582;2023-06-10T00:29:55;6.13;;;5.55;;
24557;SDS011;12726;49.148;8.582;2023-06-10T00:32:41;8.23;;;5.45;;
24557;SDS011;12726;49.148;8.582;2023-06-10T00:35:27;8.13;;;6.22;;
24557;SDS011;12726;49.148;8.582;2023-06-10T00:38:13;6.65;;;5.88;;
24557;SDS011;12726;49.148;8.582;2023-06-10T00:40:58;8.18;;;5.68;;
24557;SDS011;12726;49.148;8.582;2023-06-10T00:43:44;7.47;;;6.75;;
24557;SDS011;12726;49.148;8.582;2023-06-10T00:46:29;7.03;;;5.95;;
24557;SDS011;12726;49.148;8.582;2023-06-10T00:49:18;8.27;;;5.80;;
24557;SDS011;12726;49.148;8.582;2023-06-10T00:52:04;6.05;;;5.13;;
24557;SDS011;12726;49.148;8.582;2023-06-10T00:54:51;6.13;;;5.47;;
24557;SDS011;12726;49.148;8.582;2023-06-10T00:57:37;9.48;;;5.60;;
24557;SDS011;12726;49.148;8.582;2023-06-10T01:00:22;6.47;;;5.53;;
24557;SDS011;12726;49.148;8.582;2023-06-10T01:03:07;7.57;;;5.57;;
24557;SDS011;12726;49.148;8.582;2023-06-10T01:05:57;5.60;;;4.82;;
24557;SDS011;12726;49.148;8.582;2023-06-10T01:08:50;12.75;;;5.97;;
24557;SDS011;12726;49.148;8.582;2023-06-10T01:11:43;5.30;;;4.80;;
24557;SDS011;12726;49.148;8.582;2023-06-10T01:14:32;6.07;;;5.07;;
24557;SDS011;12726;49.148;8.582;2023-06-10T01:17:17;5.93;;;5.32;;
24557;SDS011;12726;49.148;8.582;2023-06-10T01:20:03;7.53;;;6.40;;
24557;SDS011;12726;49.148;8.582;2023-06-10T01:22:57;6.57;;;5.22;;
24557;SDS011;12726;49.148;8.582;2023-06-10T01:25:44;5.97;;;5.38;;
24557;SDS011;12726;49.148;8.582;2023-06-10T01:28:33;8.75;;;5.32;;
24557;SDS011;12726;49.148;8.582;2023-06-10T01:31:23;6.20;;;4.93;;
24557;SDS011;12726;49.148;8.582;2023-06-10T01:34:20;6.75;;;6.05;;
24557;SDS011;12726;49.148;8.582;2023-06-10T01:37:08;8.45;;;6.43;;
24557;SDS011;12726;49.148;8.582;2023-06-10T01:39:57;6.25;;;5.65;;
24557;SDS011;12726;49.148;8.582;2023-06-10T01:42:43;8.07;;;5.95;;
24557;SDS011;12726;49.148;8.582;2023-06-10T01:45:29;6.85;;;6.15;;
24557;SDS011;12726;49.148;8.582;2023-06-10T01:48:14;8.20;;;6.80;;
24557;SDS011;12726;49.148;8.582;2023-06-10T01:51:00;6.80;;;6.10;;
24557;SDS011;12726;49.148;8.582;2023-06-10T01:53:45;8.45;;;5.63;;
24557;SDS011;12726;49.148;8.582;2023-06-10T01:56:32;8.48;;;6.47;;
24557;SDS011;12726;49.148;8.582;2023-06-10T01:59:17;6.85;;;5.95;;
24557;SDS011;12726;49.148;8.582;2023-06-10T02:02:03;7.20;;;6.50;;
24557;SDS011;12726;49.148;8.582;2023-06-10T02:04:48;7.95;;;6.45;;
24557;SDS011;12726;49.148;8.582;2023-06-10T02:07:34;7.50;;;6.40;;
24557;SDS011;12726;49.148;8.582;2023-06-10T02:10:19;6.93;;;6.22;;
24557;SDS011;12726;49.148;8.582;2023-06-10T02:13:06;8.98;;;6.85;;
24557;SDS011;12726;49.148;8.582;2023-06-10T02:15:51;7.20;;;5.22;;
24557;SDS011;12726;49.148;8.582;2023-06-10T02:18:37;7.80;;;6.65;;
24557;SDS011;12726;49.148;8.582;2023-06-10T02:21:24;8.38;;;6.10;;
24557;SDS011;12726;49.148;8.582;2023-06-10T02:24:09;6.82;;;6.13;;
24557;SDS011;12726;49.148;8.582;2023-06-10T02:26:55;7.20;;;6.47;;
24557;SDS011;12726;49.148;8.582;2023-06-10T02:29:42;7.60;;;6.28;;
24557;SDS011;12726;49.148;8.582;2023-06-10T02:32:27;6.40;;;5.80;;
24557;SDS011;12726;49.148;8.582;2023-06-10T02:35:13;9.57;;;5.68;;
24557;SDS011;12726;49.148;8.582;2023-06-10T02:37:58;7.88;;;5.60;;
24557;SDS011;12726;49.148;8.582;2023-06-10T02:40:43;6.78;;;5.20;;
24557;SDS011;12726;49.148;8.582;2023-06-10T02:43:29;7.90;;;6.28;;
24557;SDS011;12726;49.148;8.582;2023-06-10T02:46:15;5.30;;;4.75;;
24557;SDS011;12726;49.148;8.582;2023-06-10T02:49:01;7.00;;;5.35;;
24557;SDS011;12726;49.148;8.582;2023-06-10T02:51:46;5.82;;;5.22;;
24557;SDS011;12726;49.148;8.582;2023-06-10T02:54:32;6.97;;;5.25;;
24557;SDS011;12726;49.148;8.582;2023-06-10T02:57:17;6.15;;;5.55;;
24557;SDS011;12726;49.148;8.582;2023-06-10T03:00:03;5.40;;;4.90;;
24557;SDS011;12726;49.148;8.582;2023-06-10T03:02:54;7.63;;;5.35;;
24557;SDS011;12726;49.148;8.582;2023-06-10T03:05:41;8.07;;;4.63;;
24557;SDS011;12726;49.148;8.582;2023-06-10T03:08:26;6.13;;;5.25;;
24557;SDS011;12726;49.148;8.582;2023-06-10T03:11:12;5.65;;;5.15;;
24557;SDS011;12726;49.148;8.582;2023-06-10T03:13:57;6.35;;;5.55;;
24557;SDS011;12726;49.148;8.582;2023-06-10T03:16:42;7.72;;;6.25;;
24557;SDS011;12726;49.148;8.582;2023-06-10T03:19:30;7.38;;;6.53;;
24557;SDS011;12726;49.148;8.582;2023-06-10T03:22:16;6.65;;;6.00;;
24557;SDS011;12726;49.148;8.582;2023-06-10T03:25:02;7.88;;;6.38;;
24557;SDS011;12726;49.148;8.582;2023-06-10T03:27:47;8.10;;;6.15;;
24557;SDS011;12726;49.148;8.582;2023-06-10T03:30:33;8.27;;;6.60;;
24557;SDS011;12726;49.148;8.582;2023-06-10T03:33:18;9.52;;;6.68;;
24557;SDS011;12726;49.148;8.582;2023-06-10T03:36:05;6.85;;;6.07;;
24557;SDS011;12726;49.148;8.582;2023-06-10T03:38:51;6.90;;;5.85;;
24557;SDS011;12726;49.148;8.582;2023-06-10T03:41:37;6.70;;;6.00;;
24557;SDS011;12726;49.148;8.582;2023-06-10T03:44:23;7.90;;;6.90;;
24557;SDS011;12726;49.148;8.582;2023-06-10T03:47:09;9.10;;;5.82;;
24557;SDS011;12726;49.148;8.582;2023-06-10T03:49:56;6.90;;;5.70;;
24557;SDS011;12726;49.148;8.582;2023-06-10T03:52:43;7.53;;;6.13;;
24557;SDS011;12726;49.148;8.582;2023-06-10T03:55:29;8.10;;;6.75;;
24557;SDS011;12726;49.148;8.582;2023-06-10T03:58:15;7.60;;;6.25;;
24557;SDS011;12726;49.148;8.582;2023-06-10T04:01:01;8.30;;;6.28;;
24557;SDS011;12726;49.148;8.582;2023-06-10T04:03:46;7.97;;;6.20;;
24557;SDS011;12726;49.148;8.582;2023-06-10T04:06:32;8.93;;;6.03;;
24557;SDS011;12726;49.148;8.582;2023-06-10T04:09:19;9.18;;;6.47;;
24557;SDS011;12726;49.148;8.582;2023-06-10T04:12:04;6.82;;;5.80;;
24557;SDS011;12726;49.148;8.582;2023-06-10T04:14:51;7.68;;;5.90;;
24557;SDS011;12726;49.148;8.582;2023-06-10T04:17:37;8.70;;;6.20;;
24557;SDS011;12726;49.148;8.582;2023-06-10T04:20:22;8.27;;;6.32;;
24557;SDS011;12726;49.148;8.582;2023-06-10T04:23:07;8.25;;;5.75;;
24557;SDS011;12726;49.148;8.582;2023-06-10T04:25:54;8.50;;;6.40;;
24557;SDS011;12726;49.148;8.582;2023-06-10T04:28:39;7.05;;;6.35;;
24557;SDS011;12726;49.148;8.582;2023-06-10T04:31:25;7.60;;;6.60;;
24557;SDS011;12726;49.148;8.582;2023-06-10T04:34:10;7.20;;;5.85;;
24557;SDS011;12726;49.148;8.582;2023-06-10T04:36:55;6.55;;;5.82;;
24557;SDS011;12726;49.148;8.582;2023-06-10T04:39:40;6.55;;;5.80;;
24557;SDS011;12726;49.148;8.582;2023-06-10T04:42:27;7.80;;;6.20;;
24557;SDS011;12726;49.148;8.582;2023-06-10T04:45:12;6.50;;;5.85;;
24557;SDS011;12726;49.148;8.582;2023-06-10T04:47:58;6.28;;;5.35;;
24557;SDS011;12726;49.148;8.582;2023-06-10T04:50:43;7.00;;;5.53;;
24557;SDS011;12726;49.148;8.582;2023-06-10T04:53:29;7.75;;;5.70;;
24557;SDS011;12726;49.148;8.582;2023-06-10T04:56:14;7.53;;;6.35;;
24557;SDS011;12726;49.148;8.582;2023-06-10T04:59:01;9.23;;;5.93;;
24557;SDS011;12726;49.148;8.582;2023-06-10T05:01:46;6.10;;;5.50;;
24557;SDS011;12726;49.148;8.582;2023-06-10T05:04:31;6.70;;;6.00;;
24557;SDS011;12726;49.148;8.582;2023-06-10T05:07:17;7.20;;;5.93;;
24557;SDS011;12726;49.148;8.582;2023-06-10T05:10:02;8.00;;;6.00;;
24557;SDS011;12726;49.148;8.582;2023-06-10T05:12:47;10.75;;;6.50;;
24557;SDS011;12726;49.148;8.582;2023-06-10T05:15:34;8.68;;;6.35;;
24557;SDS011;12726;49.148;8.582;2023-06-10T05:18:19;8.05;;;5.68;;
24557;SDS011;12726;49.148;8.582;2023-06-10T05:21:04;6.32;;;5.50;;
24557;SDS011;12726;49.148;8.582;2023-06-10T05:23:50;6.25;;;5.45;;
24557;SDS011;12726;49.148;8.582;2023-06-10T05:26:35;7.63;;;5.57;;
24557;SDS011;12726;49.148;8.582;2023-06-10T05:29:21;6.30;;;5.57;;
24557;SDS011;12726;49.148;8.582;2023-06-10T05:32:08;6.80;;;5.53;;
24557;SDS011;12726;49.148;8.582;2023-06-10T05:34:53;6.95;;;5.47;;
24557;SDS011;12726;49.148;8.582;2023-06-10T05:37:39;7.45;;;5.47;;
24557;SDS011;12726;49.148;8.582;2023-06-10T05:40:24;8.80;;;5.43;;
24557;SDS011;12726;49.148;8.582;2023-06-10T05:43:09;7.72;;;5.53;;
24557;SDS011;12726;49.148;8.582;2023-06-10T05:45:54;6.43;;;5.15;;
24557;SDS011;12726;49.148;8.582;2023-06-10T05:48:41;8.00;;;5.43;;
24557;SDS011;12726;49.148;8.582;2023-06-10T05:51:26;6.28;;;5.15;;
24557;SDS011;12726;49.148;8.582;2023-06-10T05:54:12;8.00;;;5.50;;
24557;SDS011;12726;49.148;8.582;2023-06-10T05:56:57;6.32;;;5.25;;
24557;SDS011;12726;49.148;8.582;2023-06-10T05:59:42;8.23;;;5.05;;
24557;SDS011;12726;49.148;8.582;2023-06-10T06:02:28;7.00;;;5.45;;
24557;SDS011;12726;49.148;8.582;2023-06-10T06:05:14;6.20;;;5.18;;
24557;SDS011;12726;49.148;8.582;2023-06-10T06:08:00;6.45;;;4.70;;
24557;SDS011;12726;49.148;8.582;2023-06-10T06:10:45;5.97;;;5.15;;
24557;SDS011;12726;49.148;8.582;2023-06-10T06:13:31;6.93;;;4.95;;
24557;SDS011;12726;49.148;8.582;2023-06-10T06:16:17;6.03;;;4.68;;
24557;SDS011;12726;49.148;8.582;2023-06-10T06:19:03;9.98;;;5.38;;
24557;SDS011;12726;49.148;8.582;2023-06-10T06:21:50;5.63;;;5.13;;
24557;SDS011;12726;49.148;8.582;2023-06-10T06:24:35;6.20;;;5.43;;
24557;SDS011;12726;49.148;8.582;2023-06-10T06:27:20;6.53;;;5.10;;
24557;SDS011;12726;49.148;8.582;2023-06-10T06:30:06;5.78;;;5.10;;
24557;SDS011;12726;49.148;8.582;2023-06-10T06:32:52;5.47;;;4.50;;
24557;SDS011;12726;49.148;8.582;2023-06-10T06:35:38;5.75;;;4.65;;
24557;SDS011;12726;49.148;8.582;2023-06-10T06:38:25;6.53;;;4.80;;
24557;SDS011;12726;49.148;8.582;2023-06-10T06:41:10;6.00;;;4.82;;
24557;SDS011;12726;49.148;8.582;2023-06-10T06:43:56;7.88;;;5.07;;
24557;SDS011;12726;49.148;8.582;2023-06-10T06:46:41;5.53;;;5.00;;
24557;SDS011;12726;49.148;8.582;2023-06-10T06:49:26;7.68;;;4.88;;
24557;SDS011;12726;49.148;8.582;2023-06-10T06:52:11;5.45;;;4.95;;
24557;SDS011;12726;49.148;8.582;2023-06-10T06:54:58;5.47;;;4.90;;
24557;SDS011;12726;49.148;8.582;2023-06-10T06:57:43;4.47;;;4.07;;
24557;SDS011;12726;49.148;8.582;2023-06-10T07:00:29;5.07;;;4.60;;
24557;SDS011;12726;49.148;8.582;2023-06-10T07:03:14;6.97;;;5.07;;
24557;SDS011;12726;49.148;8.582;2023-06-10T07:06:00;6.45;;;4.35;;
24557;SDS011;12726;49.148;8.582;2023-06-10T07:08:45;5.03;;;4.50;;
24557;SDS011;12726;49.148;8.582;2023-06-10T07:11:32;5.22;;;4.72;;
24557;SDS011;12726;49.148;8.582;2023-06-10T07:14:17;5.28;;;4.72;;
24557;SDS011;12726;49.148;8.582;2023-06-10T07:17:02;6.32;;;4.60;;
24557;SDS011;12726;49.148;8.582;2023-06-10T07:19:48;4.55;;;4.05;;
24557;SDS011;12726;49.148;8.582;2023-06-10T07:22:35;7.22;;;4.63;;
24557;SDS011;12726;49.148;8.582;2023-06-10T07:25:20;5.63;;;4.13;;
24557;SDS011;12726;49.148;8.582;2023-06-10T07:28:07;4.63;;;3.88;;
24557;SDS011;12726;49.148;8.582;2023-06-10T07:30:52;4.65;;;3.90;;
24557;SDS011;12726;49.148;8.582;2023-06-10T07:33:37;4.10;;;3.28;;
24557;SDS011;12726;49.148;8.582;2023-06-10T07:36:23;5.25;;;4.20;;
24557;SDS011;12726;49.148;8.582;2023-06-10T07:39:11;4.43;;;4.03;;
24557;SDS011;12726;49.148;8.582;2023-06-10T07:41:56;4.43;;;3.75;;
24557;SDS011;12726;49.148;8.582;2023-06-10T07:44:43;5.70;;;5.13;;
24557;SDS011;12726;49.148;8.582;2023-06-10T07:47:28;5.70;;;4.25;;
24557;SDS011;12726;49.148;8.582;2023-06-10T07:50:14;4.40;;;4.00;;
24557;SDS011;12726;49.148;8.582;2023-06-10T07:52:59;4.47;;;3.75;;
24557;SDS011;12726;49.148;8.582;2023-06-10T07:55:45;5.15;;;4.10;;
24557;SDS011;12726;49.148;8.582;2023-06-10T07:58:30;4.95;;;4.45;;
24557;SDS011;12726;49.148;8.582;2023-06-10T08:01:17;5.07;;;4.55;;
24557;SDS011;12726;49.148;8.582;2023-06-10T08:04:03;4.75;;;4.20;;
24557;SDS011;12726;49.148;8.582;2023-06-10T08:06:48;5.10;;;4.20;;
24557;SDS011;12726;49.148;8.582;2023-06-10T08:09:33;4.45;;;4.05;;
24557;SDS011;12726;49.148;8.582;2023-06-10T08:12:19;4.87;;;4.20;;
24557;SDS011;12726;49.148;8.582;2023-06-10T08:15:05;4.78;;;4.18;;
24557;SDS011;12726;49.148;8.582;2023-06-10T08:17:53;4.20;;;3.80;;
24557;SDS011;12726;49.148;8.582;2023-06-10T08:20:38;4.07;;;3.67;;
24557;SDS011;12726;49.148;8.582;2023-06-10T08:23:24;5.78;;;3.75;;
24557;SDS011;12726;49.148;8.582;2023-06-10T08:26:09;4.30;;;3.60;;
24557;SDS011;12726;49.148;8.582;2023-06-10T08:28:55;5.43;;;4.07;;
24557;SDS011;12726;49.148;8.582;2023-06-10T08:31:41;4.18;;;3.78;;
24557;SDS011;12726;49.148;8.582;2023-06-10T08:34:28;4.22;;;3.65;;
24557;SDS011;12726;49.148;8.582;2023-06-10T08:37:13;4.93;;;3.92;;
24557;SDS011;12726;49.148;8.582;2023-06-10T08:39:58;5.85;;;4.22;;
24557;SDS011;12726;49.148;8.582;2023-06-10T08:42:45;5.97;;;3.92;;
24557;SDS011;12726;49.148;8.582;2023-06-10T08:45:36;5.22;;;4.05;;
24557;SDS011;12726;49.148;8.582;2023-06-10T08:48:22;5.40;;;3.83;;
24557;SDS011;12726;49.148;8.582;2023-06-10T08:51:09;4.57;;;4.05;;
24557;SDS011;12726;49.148;8.582;2023-06-10T08:53:57;5.45;;;3.78;;
24557;SDS011;12726;49.148;8.582;2023-06-10T08:56:47;5.00;;;4.03;;
24557;SDS011;12726;49.148;8.582;2023-06-10T08:59:35;5.45;;;4.25;;
24557;SDS011;12726;49.148;8.582;2023-06-10T09:02:22;3.90;;;3.60;;
24557;SDS011;12726;49.148;8.582;2023-06-10T09:05:09;4.13;;;3.80;;
24557;SDS011;12726;49.148;8.582;2023-06-10T09:07:57;4.00;;;3.60;;
24557;SDS011;12726;49.148;8.582;2023-06-10T09:10:42;4.53;;;4.13;;
24557;SDS011;12726;49.148;8.582;2023-06-10T09:13:27;4.30;;;3.90;;
24557;SDS011;12726;49.148;8.582;2023-06-10T09:16:13;4.72;;;4.15;;
24557;SDS011;12726;49.148;8.582;2023-06-10T09:19:00;4.25;;;3.83;;
24557;SDS011;12726;49.148;8.582;2023-06-10T09:21:51;4.45;;;3.92;;
24557;SDS011;12726;49.148;8.582;2023-06-10T09:24:38;6.05;;;4.30;;
24557;SDS011;12726;49.148;8.582;2023-06-10T09:27:23;4.93;;;4.20;;
24557;SDS011;12726;49.148;8.582;2023-06-10T09:30:10;5.65;;;4.20;;
24557;SDS011;12726;49.148;8.582;2023-06-10T09:33:11;4.85;;;4.30;;
24557;SDS011;12726;49.148;8.582;2023-06-10T09:35:59;4.63;;;4.03;;
24557;SDS011;12726;49.148;8.582;2023-06-10T09:38:47;5.25;;;4.20;;
24557;SDS011;12726;49.148;8.582;2023-06-10T09:41:39;5.25;;;3.92;;
24557;SDS011;12726;49.148;8.582;2023-06-10T09:44:25;5.72;;;4.78;;
24557;SDS011;12726;49.148;8.582;2023-06-10T09:47:12;4.82;;;4.43;;
24557;SDS011;12726;49.148;8.582;2023-06-10T09:50:05;5.18;;;4.22;;
24557;SDS011;12726;49.148;8.582;2023-06-10T09:52:51;6.90;;;4.15;;
24557;SDS011;12726;49.148;8.582;2023-06-10T09:55:37;6.05;;;4.40;;
24557;SDS011;12726;49.148;8.582;2023-06-10T09:58:34;5.95;;;4.45;;
24557;SDS011;12726;49.148;8.582;2023-06-10T10:01:20;5.72;;;4.05;;
24557;SDS011;12726;49.148;8.582;2023-06-10T10:04:08;4.60;;;4.10;;
24557;SDS011;12726;49.148;8.582;2023-06-10T10:06:53;6.40;;;4.35;;
24557;SDS011;12726;49.148;8.582;2023-06-10T10:09:39;5.90;;;4.07;;
24557;SDS011;12726;49.148;8.582;2023-06-10T10:12:25;5.22;;;3.97;;
24557;SDS011;12726;49.148;8.582;2023-06-10T10:15:12;4.47;;;3.90;;
24557;SDS011;12726;49.148;8.582;2023-06-10T10:18:00;5.38;;;4.20;;
24557;SDS011;12726;49.148;8.582;2023-06-10T10:20:51;4.47;;;3.75;;
24557;SDS011;12726;49.148;8.582;2023-06-10T10:23:39;6.07;;;3.80;;
24557;SDS011;12726;49.148;8.582;2023-06-10T10:26:29;5.43;;;4.30;;
24557;SDS011;12726;49.148;8.582;2023-06-10T10:29:19;5.70;;;4.38;;
24557;SDS011;12726;49.148;8.582;2023-06-10T10:32:13;4.35;;;3.95;;
24557;SDS011;12726;49.148;8.582;2023-06-10T10:35:03;4.85;;;4.40;;
24557;SDS011;12726;49.148;8.582;2023-06-10T10:37:54;4.85;;;4.00;;
24557;SDS011;12726;49.148;8.582;2023-06-10T10:40:39;4.63;;;4.10;;
24557;SDS011;12726;49.148;8.582;2023-06-10T10:43:27;4.43;;;4.00;;
24557;SDS011;12726;49.148;8.582;2023-06-10T10:46:15;4.65;;;3.60;;
24557;SDS011;12726;49.148;8.582;2023-06-10T10:49:03;4.55;;;4.07;;
24557;SDS011;12726;49.148;8.582;2023-06-10T10:51:55;4.20;;;3.80;;
24557;SDS011;12726;49.148;8.582;2023-06-10T10:54:43;7.65;;;4.05;;
24557;SDS011;12726;49.148;8.582;2023-06-10T10:57:30;4.40;;;4.00;;
24557;SDS011;12726;49.148;8.582;2023-06-10T11:00:15;4.60;;;4.20;;
24557;SDS011;12726;49.148;8.582;2023-06-10T11:03:13;4.47;;;4.07;;
24557;SDS011;12726;49.148;8.582;2023-06-10T11:06:01;5.97;;;4.00;;
24557;SDS011;12726;49.148;8.582;2023-06-10T11:08:57;4.28;;;3.88;;
24557;SDS011;12726;49.148;8.582;2023-06-10T11:11:48;6.97;;;4.40;;
24557;SDS011;12726;49.148;8.582;2023-06-10T11:14:35;4.97;;;4.55;;
24557;SDS011;12726;49.148;8.582;2023-06-10T11:17:22;4.65;;;3.50;;
24557;SDS011;12726;49.148;8.582;2023-06-10T11:20:08;4.03;;;3.63;;
24557;SDS011;12726;49.148;8.582;2023-06-10T11:23:02;3.58;;;3.30;;
24557;SDS011;12726;49.148;8.582;2023-06-10T11:25:47;4.18;;;3.78;;
24557;SDS011;12726;49.148;8.582;2023-06-10T11:28:33;4.60;;;3.67;;
24557;SDS011;12726;49.148;8.582;2023-06-10T11:31:18;4.82;;;3.20;;
24557;SDS011;12726;49.148;8.582;2023-06-10T11:34:05;3.70;;;3.05;;
24557;SDS011;12726;49.148;8.582;2023-06-10T11:36:51;5.43;;;2.92;;
24557;SDS011;12726;49.148;8.582;2023-06-10T11:39:38;3.78;;;3.03;;
24557;SDS011;12726;49.148;8.582;2023-06-10T11:42:24;4.13;;;3.25;;
24557;SDS011;12726;49.148;8.582;2023-06-10T11:45:09;4.22;;;2.80;;
24557;SDS011;12726;49.148;8.582;2023-06-10T11:47:59;7.22;;;3.40;;
24557;SDS011;12726;49.148;8.582;2023-06-10T11:50:44;5.03;;;3.10;;
24557;SDS011;12726;49.148;8.582;2023-06-10T11:53:30;3.72;;;3.33;;
24557;SDS011;12726;49.148;8.582;2023-06-10T11:56:20;4.00;;;3.50;;
24557;SDS011;12726;49.148;8.582;2023-06-10T11:59:06;5.57;;;3.58;;
24557;SDS011;12726;49.148;8.582;2023-06-10T12:01:51;4.05;;;3.67;;
24557;SDS011;12726;49.148;8.582;2023-06-10T12:04:37;4.35;;;3.13;;
24557;SDS011;12726;49.148;8.582;2023-06-10T12:07:22;4.47;;;3.47;;
24557;SDS011;12726;49.148;8.582;2023-06-10T12:10:07;5.72;;;3.35;;
24557;SDS011;12726;49.148;8.582;2023-06-10T12:12:55;4.38;;;3.53;;
24557;SDS011;12726;49.148;8.582;2023-06-10T12:15:40;3.63;;;3.25;;
24557;SDS011;12726;49.148;8.582;2023-06-10T12:18:26;4.28;;;3.30;;
24557;SDS011;12726;49.148;8.582;2023-06-10T12:21:17;3.70;;;2.88;;
24557;SDS011;12726;49.148;8.582;2023-06-10T12:24:07;3.83;;;3.30;;
24557;SDS011;12726;49.148;8.582;2023-06-10T12:26:54;4.28;;;3.58;;
24557;SDS011;12726;49.148;8.582;2023-06-10T12:29:50;3.53;;;3.22;;
24557;SDS011;12726;49.148;8.582;2023-06-10T12:32:38;6.70;;;3.60;;
24557;SDS011;12726;49.148;8.582;2023-06-10T12:35:26;5.43;;;3.65;;
24557;SDS011;12726;49.148;8.582;2023-06-10T12:38:12;3.83;;;3.50;;
24557;SDS011;12726;49.148;8.582;2023-06-10T12:41:01;6.88;;;4.22;;
24557;SDS011;12726;49.148;8.582;2023-06-10T12:43:47;5.70;;;3.40;;
24557;SDS011;12726;49.148;8.582;2023-06-10T12:46:36;7.35;;;3.58;;
24557;SDS011;12726;49.148;8.582;2023-06-10T12:49:22;4.03;;;3.40;;
24557;SDS011;12726;49.148;8.582;2023-06-10T12:52:07;5.80;;;3.40;;
24557;SDS011;12726;49.148;8.582;2023-06-10T12:54:53;4.65;;;3.38;;
24557;SDS011;12726;49.148;8.582;2023-06-10T12:57:47;3.90;;;3.15;;
24557;SDS011;12726;49.148;8.582;2023-06-10T13:00:32;4.15;;;3.40;;
24557;SDS011;12726;49.148;8.582;2023-06-10T13:03:20;5.13;;;3.70;;
24557;SDS011;12726;49.148;8.582;2023-06-10T13:06:05;3.75;;;3.45;;
24557;SDS011;12726;49.148;8.582;2023-06-10T13:08:51;5.32;;;3.40;;
24557;SDS011;12726;49.148;8.582;2023-06-10T13:11:36;3.63;;;2.97;;
24557;SDS011;12726;49.148;8.582;2023-06-10T13:14:22;3.30;;;2.88;;
24557;SDS011;12726;49.148;8.582;2023-06-10T13:17:07;3.53;;;2.92;;
24557;SDS011;12726;49.148;8.582;2023-06-10T13:19:54;5.85;;;3.10;;
24557;SDS011;12726;49.148;8.582;2023-06-10T13:22:39;3.55;;;3.10;;
24557;SDS011;12726;49.148;8.582;2023-06-10T13:25:24;4.38;;;3.97;;
24557;SDS011;12726;49.148;8.582;2023-06-10T13:28:09;4.28;;;3.25;;
24557;SDS011;12726;49.148;8.582;2023-06-10T13:30:55;4.13;;;3.55;;
24557;SDS011;12726;49.148;8.582;2023-06-10T13:33:40;3.55;;;3.25;;
24557;SDS011;12726;49.148;8.582;2023-06-10T13:36:28;4.38;;;3.08;;
24557;SDS011;12726;49.148;8.582;2023-06-10T13:39:14;4.20;;;2.90;;
24557;SDS011;12726;49.148;8.582;2023-06-10T13:41:59;3.38;;;3.08;;
24557;SDS011;12726;49.148;8.582;2023-06-10T13:44:45;4.22;;;3.42;;
24557;SDS011;12726;49.148;8.582;2023-06-10T13:47:30;3.20;;;2.90;;
24557;SDS011;12726;49.148;8.582;2023-06-10T13:50:16;3.67;;;3.03;;
24557;SDS011;12726;49.148;8.582;2023-06-10T13:53:03;4.35;;;3.13;;
24557;SDS011;12726;49.148;8.582;2023-06-10T13:55:48;4.20;;;2.85;;
24557;SDS011;12726;49.148;8.582;2023-06-10T13:58:34;3.10;;;2.80;;
24557;SDS011;12726;49.148;8.582;2023-06-10T14:01:22;4.40;;;3.30;;
24557;SDS011;12726;49.148;8.582;2023-06-10T14:04:07;2.97;;;2.67;;
24557;SDS011;12726;49.148;8.582;2023-06-10T14:06:53;3.17;;;2.85;;
24557;SDS011;12726;49.148;8.582;2023-06-10T14:09:40;4.85;;;2.88;;
24557;SDS011;12726;49.148;8.582;2023-06-10T14:12:25;3.20;;;2.90;;
24557;SDS011;12726;49.148;8.582;2023-06-10T14:15:10;3.78;;;2.97;;
24557;SDS011;12726;49.148;8.582;2023-06-10T14:17:56;4.60;;;2.72;;
24557;SDS011;12726;49.148;8.582;2023-06-10T14:20:41;3.45;;;2.70;;
24557;SDS011;12726;49.148;8.582;2023-06-10T14:23:27;5.13;;;2.83;;
24557;SDS011;12726;49.148;8.582;2023-06-10T14:26:14;3.92;;;2.70;;
24557;SDS011;12726;49.148;8.582;2023-06-10T14:28:59;3.08;;;2.80;;
24557;SDS011;12726;49.148;8.582;2023-06-10T14:31:46;3.17;;;2.72;;
24557;SDS011;12726;49.148;8.582;2023-06-10T14:34:31;3.25;;;2.95;;
24557;SDS011;12726;49.148;8.582;2023-06-10T14:37:17;3.00;;;2.47;;
24557;SDS011;12726;49.148;8.582;2023-06-10T14:40:02;3.35;;;3.05;;
24557;SDS011;12726;49.148;8.582;2023-06-10T14:42:50;4.20;;;2.95;;
24557;SDS011;12726;49.148;8.582;2023-06-10T14:45:35;3.00;;;2.80;;
24557;SDS011;12726;49.148;8.582;2023-06-10T14:48:20;2.80;;;2.60;;
24557;SDS011;12726;49.148;8.582;2023-06-10T14:51:05;4.55;;;2.85;;
24557;SDS011;12726;49.148;8.582;2023-06-10T14:53:51;3.35;;;2.88;;
24557;SDS011;12726;49.148;8.582;2023-06-10T14:56:36;3.00;;;2.70;;
24557;SDS011;12726;49.148;8.582;2023-06-10T14:59:23;2.92;;;2.58;;
24557;SDS011;12726;49.148;8.582;2023-06-10T15:02:09;3.00;;;2.78;;
24557;SDS011;12726;49.148;8.582;2023-06-10T15:04:54;3.58;;;2.60;;
24557;SDS011;12726;49.148;8.582;2023-06-10T15:07:39;5.78;;;2.75;;
24557;SDS011;12726;49.148;8.582;2023-06-10T15:10:25;3.22;;;2.92;;
24557;SDS011;12726;49.148;8.582;2023-06-10T15:13:10;4.13;;;3.10;;
24557;SDS011;12726;49.148;8.582;2023-06-10T15:15:56;4.38;;;2.92;;
24557;SDS011;12726;49.148;8.582;2023-06-10T15:18:42;2.97;;;2.78;;
24557;SDS011;12726;49.148;8.582;2023-06-10T15:21:27;3.03;;;2.70;;
24557;SDS011;12726;49.148;8.582;2023-06-10T15:24:12;3.30;;;2.63;;
24557;SDS011;12726;49.148;8.582;2023-06-10T15:26:58;4.10;;;3.10;;
24557;SDS011;12726;49.148;8.582;2023-06-10T15:29:43;3.42;;;2.70;;
24557;SDS011;12726;49.148;8.582;2023-06-10T15:32:30;3.35;;;2.70;;
24557;SDS011;12726;49.148;8.582;2023-06-10T15:35:16;3.22;;;2.97;;
24557;SDS011;12726;49.148;8.582;2023-06-10T15:38:01;3.35;;;2.97;;
24557;SDS011;12726;49.148;8.582;2023-06-10T15:40:46;5.45;;;2.92;;
24557;SDS011;12726;49.148;8.582;2023-06-10T15:43:32;4.75;;;2.90;;
24557;SDS011;12726;49.148;8.582;2023-06-10T15:46:17;3.25;;;2.67;;
24557;SDS011;12726;49.148;8.582;2023-06-10T15:49:04;3.25;;;2.95;;
24557;SDS011;12726;49.148;8.582;2023-06-10T15:51:50;3.30;;;3.00;;
24557;SDS011;12726;49.148;8.582;2023-06-10T15:54:38;3.20;;;2.90;;
24557;SDS011;12726;49.148;8.582;2023-06-10T15:57:23;5.40;;;2.78;;
24557;SDS011;12726;49.148;8.582;2023-06-10T16:00:09;5.63;;;3.20;;
24557;SDS011;12726;49.148;8.582;2023-06-10T16:02:55;5.28;;;3.08;;
24557;SDS011;12726;49.148;8.582;2023-06-10T16:05:42;4.60;;;3.28;;
24557;SDS011;12726;49.148;8.582;2023-06-10T16:08:27;3.10;;;2.90;;
24557;SDS011;12726;49.148;8.582;2023-06-10T16:11:13;3.65;;;3.35;;
24557;SDS011;12726;49.148;8.582;2023-06-10T16:13:58;4.63;;;3.38;;
24557;SDS011;12726;49.148;8.582;2023-06-10T16:16:43;4.97;;;3.10;;
24557;SDS011;12726;49.148;8.582;2023-06-10T16:19:29;3.30;;;3.00;;
24557;SDS011;12726;49.148;8.582;2023-06-10T16:22:15;3.10;;;2.90;;
24557;SDS011;12726;49.148;8.582;2023-06-10T16:25:01;3.35;;;3.00;;
24557;SDS011;12726;49.148;8.582;2023-06-10T16:27:46;4.22;;;3.00;;
24557;SDS011;12726;49.148;8.582;2023-06-10T16:30:31;3.65;;;2.95;;
24557;SDS011;12726;49.148;8.582;2023-06-10T16:33:17;3.88;;;2.70;;
24557;SDS011;12726;49.148;8.582;2023-06-10T16:36:02;3.05;;;2.85;;
24557;SDS011;12726;49.148;8.582;2023-06-10T16:38:49;3.42;;;3.13;;
24557;SDS011;12726;49.148;8.582;2023-06-10T16:41:35;3.35;;;2.72;;
24557;SDS011;12726;49.148;8.582;2023-06-10T16:44:20;3.45;;;3.15;;